sensor_id;sensor_type;location;lat;lon;timestamp;P1;durP1;ratioP1;P2;durP2;ratioP2
23015;SDS011;11674;52.428;13.584;2022-09-21T00:02:03;6.82;;;3.78;;
23015;SDS011;11674;52.428;13.584;2022-09-21T00:04:35;9.43;;;4.28;;
23015;SDS011;11674;52.428;13.584;2022-09-21T00:07:07;6.22;;;4.13;;
23015;SDS011;11674;52.428;13.584;2022-09-21T00:09:39;8.63;;;4.05;;
23015;SDS011;11674;52.428;13.584;2022-09-21T00:12:11;7.15;;;3.90;;
23015;SDS011;11674;52.428;13.584;2022-09-21T00:14:43;6.80;;;4.40;;
23015;SDS011;11674;52.428;13.584;2022-09-21T00:17:08;7.15;;;4.60;;
23015;SDS011;11674;52.428;13.584;2022-09-21T00:19:40;6.35;;;3.75;;
23015;SDS011;11674;52.428;13.584;2022-09-21T00:22:12;6.35;;;4.15;;
23015;SDS011;11674;52.428;13.584;2022-09-21T00:24:44;9.10;;;3.75;;
23015;SDS011;11674;52.428;13.584;2022-09-21T00:27:09;6.82;;;3.95;;
23015;SDS011;11674;52.428;13.584;2022-09-21T00:29:41;7.07;;;4.10;;
23015;SDS011;11674;52.428;13.584;2022-09-21T00:32:13;5.78;;;3.92;;
23015;SDS011;11674;52.428;13.584;2022-09-21T00:34:45;6.82;;;4.03;;
23015;SDS011;11674;52.428;13.584;2022-09-21T00:37:10;6.53;;;4.45;;
23015;SDS011;11674;52.428;13.584;2022-09-21T00:39:42;5.72;;;3.80;;
23015;SDS011;11674;52.428;13.584;2022-09-21T00:42:47;8.65;;;4.20;;
23015;SDS011;11674;52.428;13.584;2022-09-21T00:45:12;9.05;;;4.10;;
23015;SDS011;11674;52.428;13.584;2022-09-21T00:47:44;6.43;;;3.80;;
23015;SDS011;11674;52.428;13.584;2022-09-21T00:50:18;6.85;;;3.78;;
23015;SDS011;11674;52.428;13.584;2022-09-21T00:52:54;5.15;;;3.83;;
23015;SDS011;11674;52.428;13.584;2022-09-21T00:55:28;5.13;;;3.85;;
23015;SDS011;11674;52.428;13.584;2022-09-21T00:58:05;6.13;;;3.70;;
23015;SDS011;11674;52.428;13.584;2022-09-21T01:00:38;5.95;;;4.10;;
23015;SDS011;11674;52.428;13.584;2022-09-21T01:03:04;6.20;;;3.88;;
23015;SDS011;11674;52.428;13.584;2022-09-21T01:05:36;7.70;;;4.30;;
23015;SDS011;11674;52.428;13.584;2022-09-21T01:08:08;5.75;;;3.65;;
23015;SDS011;11674;52.428;13.584;2022-09-21T01:10:53;11.25;;;5.95;;
23015;SDS011;11674;52.428;13.584;2022-09-21T01:16:14;6.53;;;3.85;;
23015;SDS011;11674;52.428;13.584;2022-09-21T01:22:09;7.38;;;3.83;;
23015;SDS011;11674;52.428;13.584;2022-09-21T01:28:11;6.95;;;4.63;;
23015;SDS011;11674;52.428;13.584;2022-09-21T01:30:44;7.45;;;4.07;;
23015;SDS011;11674;52.428;13.584;2022-09-21T01:33:27;6.18;;;4.07;;
23015;SDS011;11674;52.428;13.584;2022-09-21T01:36:04;5.82;;;4.10;;
23015;SDS011;11674;52.428;13.584;2022-09-21T01:38:44;6.32;;;4.10;;
23015;SDS011;11674;52.428;13.584;2022-09-21T01:41:23;6.47;;;3.88;;
23015;SDS011;11674;52.428;13.584;2022-09-21T01:43:57;7.53;;;4.63;;
23015;SDS011;11674;52.428;13.584;2022-09-21T01:46:41;6.88;;;3.55;;
23015;SDS011;11674;52.428;13.584;2022-09-21T01:49:17;5.68;;;4.22;;
23015;SDS011;11674;52.428;13.584;2022-09-21T01:52:01;7.68;;;3.47;;
23015;SDS011;11674;52.428;13.584;2022-09-21T01:54:40;6.35;;;3.67;;
23015;SDS011;11674;52.428;13.584;2022-09-21T02:00:21;8.05;;;3.53;;
23015;SDS011;11674;52.428;13.584;2022-09-21T02:02:52;5.00;;;3.38;;
23015;SDS011;11674;52.428;13.584;2022-09-21T02:05:27;5.30;;;3.40;;
23015;SDS011;11674;52.428;13.584;2022-09-21T02:07:53;7.13;;;3.80;;
23015;SDS011;11674;52.428;13.584;2022-09-21T02:10:36;6.45;;;3.63;;
23015;SDS011;11674;52.428;13.584;2022-09-21T02:13:13;8.55;;;4.20;;
23015;SDS011;11674;52.428;13.584;2022-09-21T02:21:52;5.10;;;3.88;;
23015;SDS011;11674;52.428;13.584;2022-09-21T02:24:34;6.93;;;3.50;;
23015;SDS011;11674;52.428;13.584;2022-09-21T02:27:23;4.90;;;3.30;;
23015;SDS011;11674;52.428;13.584;2022-09-21T02:32:44;6.95;;;3.78;;
23015;SDS011;11674;52.428;13.584;2022-09-21T02:35:44;6.57;;;3.38;;
23015;SDS011;11674;52.428;13.584;2022-09-21T02:38:40;5.72;;;3.55;;
23015;SDS011;11674;52.428;13.584;2022-09-21T02:46:50;7.13;;;3.50;;
23015;SDS011;11674;52.428;13.584;2022-09-21T02:49:27;5.75;;;3.60;;
23015;SDS011;11674;52.428;13.584;2022-09-21T02:52:06;6.90;;;3.85;;
23015;SDS011;11674;52.428;13.584;2022-09-21T02:54:44;9.93;;;4.47;;
23015;SDS011;11674;52.428;13.584;2022-09-21T02:57:20;4.55;;;3.40;;
23015;SDS011;11674;52.428;13.584;2022-09-21T02:59:54;4.57;;;3.35;;
23015;SDS011;11674;52.428;13.584;2022-09-21T03:02:39;7.03;;;3.53;;
23015;SDS011;11674;52.428;13.584;2022-09-21T03:05:12;5.57;;;3.45;;
23015;SDS011;11674;52.428;13.584;2022-09-21T03:07:45;5.28;;;3.55;;
23015;SDS011;11674;52.428;13.584;2022-09-21T03:10:17;5.60;;;3.38;;
23015;SDS011;11674;52.428;13.584;2022-09-21T03:12:49;5.43;;;3.70;;
23015;SDS011;11674;52.428;13.584;2022-09-21T03:15:21;5.70;;;3.72;;
23015;SDS011;11674;52.428;13.584;2022-09-21T03:17:53;7.20;;;4.22;;
23015;SDS011;11674;52.428;13.584;2022-09-21T03:20:25;5.43;;;3.90;;
23015;SDS011;11674;52.428;13.584;2022-09-21T03:22:58;6.05;;;3.58;;
23015;SDS011;11674;52.428;13.584;2022-09-21T03:25:30;4.88;;;3.20;;
23015;SDS011;11674;52.428;13.584;2022-09-21T03:28:02;7.32;;;3.22;;
23015;SDS011;11674;52.428;13.584;2022-09-21T03:30:34;5.88;;;3.40;;
23015;SDS011;11674;52.428;13.584;2022-09-21T03:33:06;4.60;;;3.53;;
23015;SDS011;11674;52.428;13.584;2022-09-21T03:35:38;5.35;;;3.53;;
23015;SDS011;11674;52.428;13.584;2022-09-21T03:38:04;4.07;;;3.10;;
23015;SDS011;11674;52.428;13.584;2022-09-21T03:40:35;7.97;;;3.03;;
23015;SDS011;11674;52.428;13.584;2022-09-21T03:43:07;6.15;;;3.75;;
23015;SDS011;11674;52.428;13.584;2022-09-21T03:45:39;5.15;;;3.65;;
23015;SDS011;11674;52.428;13.584;2022-09-21T03:48:11;5.45;;;3.42;;
23015;SDS011;11674;52.428;13.584;2022-09-21T03:50:43;5.65;;;3.45;;
23015;SDS011;11674;52.428;13.584;2022-09-21T03:53:15;7.50;;;3.58;;
23015;SDS011;11674;52.428;13.584;2022-09-21T03:55:47;5.10;;;3.58;;
23015;SDS011;11674;52.428;13.584;2022-09-21T03:58:20;5.75;;;3.50;;
23015;SDS011;11674;52.428;13.584;2022-09-21T04:00:52;4.78;;;3.10;;
23015;SDS011;11674;52.428;13.584;2022-09-21T04:03:17;6.47;;;3.53;;
23015;SDS011;11674;52.428;13.584;2022-09-21T04:05:49;4.93;;;3.30;;
23015;SDS011;11674;52.428;13.584;2022-09-21T04:08:21;6.07;;;3.10;;
23015;SDS011;11674;52.428;13.584;2022-09-21T04:10:53;5.60;;;2.90;;
23015;SDS011;11674;52.428;13.584;2022-09-21T04:13:25;5.15;;;3.45;;
23015;SDS011;11674;52.428;13.584;2022-09-21T04:15:57;6.80;;;3.25;;
23015;SDS011;11674;52.428;13.584;2022-09-21T04:18:29;5.35;;;3.42;;
23015;SDS011;11674;52.428;13.584;2022-09-21T04:21:01;6.80;;;3.22;;
23015;SDS011;11674;52.428;13.584;2022-09-21T04:23:33;7.10;;;3.60;;
23015;SDS011;11674;52.428;13.584;2022-09-21T04:26:05;5.97;;;3.42;;
23015;SDS011;11674;52.428;13.584;2022-09-21T04:28:37;4.70;;;3.40;;
23015;SDS011;11674;52.428;13.584;2022-09-21T04:31:02;4.65;;;3.38;;
23015;SDS011;11674;52.428;13.584;2022-09-21T04:33:34;6.47;;;3.85;;
23015;SDS011;11674;52.428;13.584;2022-09-21T04:35:59;10.02;;;3.30;;
23015;SDS011;11674;52.428;13.584;2022-09-21T04:38:31;4.30;;;3.42;;
23015;SDS011;11674;52.428;13.584;2022-09-21T04:41:03;4.32;;;3.67;;
23015;SDS011;11674;52.428;13.584;2022-09-21T04:43:35;5.18;;;3.17;;
23015;SDS011;11674;52.428;13.584;2022-09-21T04:46:08;5.60;;;3.25;;
23015;SDS011;11674;52.428;13.584;2022-09-21T04:48:41;10.55;;;3.58;;
23015;SDS011;11674;52.428;13.584;2022-09-21T04:51:14;6.93;;;3.53;;
23015;SDS011;11674;52.428;13.584;2022-09-21T04:53:46;7.13;;;3.53;;
23015;SDS011;11674;52.428;13.584;2022-09-21T04:56:13;3.88;;;3.33;;
23015;SDS011;11674;52.428;13.584;2022-09-21T04:58:45;8.60;;;4.65;;
23015;SDS011;11674;52.428;13.584;2022-09-21T05:01:17;5.88;;;4.00;;
23015;SDS011;11674;52.428;13.584;2022-09-21T05:03:49;9.95;;;4.05;;
23015;SDS011;11674;52.428;13.584;2022-09-21T05:06:21;9.00;;;4.10;;
23015;SDS011;11674;52.428;13.584;2022-09-21T05:08:53;9.18;;;3.80;;
23015;SDS011;11674;52.428;13.584;2022-09-21T05:11:25;10.52;;;3.80;;
23015;SDS011;11674;52.428;13.584;2022-09-21T05:13:57;7.13;;;3.60;;
23015;SDS011;11674;52.428;13.584;2022-09-21T05:16:29;11.00;;;4.28;;
23015;SDS011;11674;52.428;13.584;2022-09-21T05:19:01;8.77;;;4.03;;
23015;SDS011;11674;52.428;13.584;2022-09-21T05:21:33;6.15;;;3.90;;
23015;SDS011;11674;52.428;13.584;2022-09-21T05:23:59;6.18;;;3.53;;
23015;SDS011;11674;52.428;13.584;2022-09-21T05:26:30;4.88;;;3.60;;
23015;SDS011;11674;52.428;13.584;2022-09-21T05:29:02;8.98;;;3.80;;
23015;SDS011;11674;52.428;13.584;2022-09-21T05:31:36;12.27;;;4.30;;
23015;SDS011;11674;52.428;13.584;2022-09-21T05:39:29;9.18;;;4.20;;
23015;SDS011;11674;52.428;13.584;2022-09-21T05:42:01;6.28;;;3.97;;
23015;SDS011;11674;52.428;13.584;2022-09-21T05:44:27;7.03;;;3.97;;
23015;SDS011;11674;52.428;13.584;2022-09-21T05:47:04;7.78;;;4.25;;
23015;SDS011;11674;52.428;13.584;2022-09-21T05:55:48;6.10;;;4.40;;
23015;SDS011;11674;52.428;13.584;2022-09-21T06:01:23;11.20;;;4.30;;
23015;SDS011;11674;52.428;13.584;2022-09-21T06:04:16;6.43;;;4.10;;
23015;SDS011;11674;52.428;13.584;2022-09-21T06:06:48;10.30;;;3.80;;
23015;SDS011;11674;52.428;13.584;2022-09-21T06:09:20;7.43;;;4.18;;
23015;SDS011;11674;52.428;13.584;2022-09-21T06:11:52;9.52;;;4.30;;
23015;SDS011;11674;52.428;13.584;2022-09-21T06:14:18;9.18;;;4.38;;
23015;SDS011;11674;52.428;13.584;2022-09-21T06:16:49;6.70;;;4.22;;
23015;SDS011;11674;52.428;13.584;2022-09-21T06:19:21;6.30;;;3.88;;
23015;SDS011;11674;52.428;13.584;2022-09-21T06:21:47;7.50;;;4.30;;
23015;SDS011;11674;52.428;13.584;2022-09-21T06:24:18;8.98;;;4.65;;
23015;SDS011;11674;52.428;13.584;2022-09-21T06:26:50;7.88;;;4.53;;
23015;SDS011;11674;52.428;13.584;2022-09-21T06:29:22;7.57;;;4.40;;
23015;SDS011;11674;52.428;13.584;2022-09-21T06:31:48;9.15;;;4.60;;
23015;SDS011;11674;52.428;13.584;2022-09-21T06:34:21;6.30;;;4.47;;
23015;SDS011;11674;52.428;13.584;2022-09-21T06:36:53;7.10;;;4.68;;
23015;SDS011;11674;52.428;13.584;2022-09-21T06:39:19;6.63;;;4.18;;
23015;SDS011;11674;52.428;13.584;2022-09-21T06:41:51;7.28;;;4.10;;
23015;SDS011;11674;52.428;13.584;2022-09-21T06:44:16;8.55;;;4.57;;
23015;SDS011;11674;52.428;13.584;2022-09-21T06:46:48;7.35;;;4.32;;
23015;SDS011;11674;52.428;13.584;2022-09-21T06:49:13;8.73;;;4.53;;
23015;SDS011;11674;52.428;13.584;2022-09-21T06:51:48;9.88;;;5.20;;
23015;SDS011;11674;52.428;13.584;2022-09-21T06:54:13;8.30;;;4.82;;
23015;SDS011;11674;52.428;13.584;2022-09-21T06:56:45;8.02;;;4.85;;
23015;SDS011;11674;52.428;13.584;2022-09-21T06:59:11;8.88;;;4.78;;
23015;SDS011;11674;52.428;13.584;2022-09-21T07:01:42;8.40;;;4.68;;
23015;SDS011;11674;52.428;13.584;2022-09-21T07:04:08;10.30;;;4.93;;
23015;SDS011;11674;52.428;13.584;2022-09-21T07:06:39;5.35;;;4.10;;
23015;SDS011;11674;52.428;13.584;2022-09-21T07:09:04;6.35;;;4.20;;
23015;SDS011;11674;52.428;13.584;2022-09-21T07:11:36;7.78;;;4.55;;
23015;SDS011;11674;52.428;13.584;2022-09-21T07:14:02;12.88;;;5.15;;
23015;SDS011;11674;52.428;13.584;2022-09-21T07:16:33;10.05;;;4.82;;
23015;SDS011;11674;52.428;13.584;2022-09-21T07:19:05;6.40;;;4.47;;
23015;SDS011;11674;52.428;13.584;2022-09-21T07:21:37;9.00;;;4.65;;
23015;SDS011;11674;52.428;13.584;2022-09-21T07:24:09;6.60;;;4.25;;
23015;SDS011;11674;52.428;13.584;2022-09-21T07:26:41;7.50;;;4.57;;
23015;SDS011;11674;52.428;13.584;2022-09-21T07:29:13;10.32;;;4.72;;
23015;SDS011;11674;52.428;13.584;2022-09-21T07:31:45;10.00;;;4.35;;
23015;SDS011;11674;52.428;13.584;2022-09-21T07:34:11;9.45;;;4.60;;
23015;SDS011;11674;52.428;13.584;2022-09-21T07:36:42;6.25;;;4.18;;
23015;SDS011;11674;52.428;13.584;2022-09-21T07:39:14;6.88;;;4.65;;
23015;SDS011;11674;52.428;13.584;2022-09-21T07:41:46;7.88;;;4.45;;
23015;SDS011;11674;52.428;13.584;2022-09-21T07:44:18;9.57;;;4.32;;
23015;SDS011;11674;52.428;13.584;2022-09-21T07:46:50;8.35;;;4.35;;
23015;SDS011;11674;52.428;13.584;2022-09-21T07:49:22;10.68;;;4.43;;
23015;SDS011;11674;52.428;13.584;2022-09-21T07:51:54;6.47;;;4.10;;
23015;SDS011;11674;52.428;13.584;2022-09-21T07:54:26;8.88;;;3.88;;
23015;SDS011;11674;52.428;13.584;2022-09-21T07:56:51;5.97;;;4.00;;
23015;SDS011;11674;52.428;13.584;2022-09-21T07:59:23;6.32;;;3.90;;
23015;SDS011;11674;52.428;13.584;2022-09-21T08:01:55;12.38;;;4.50;;
23015;SDS011;11674;52.428;13.584;2022-09-21T08:04:27;7.53;;;4.15;;
23015;SDS011;11674;52.428;13.584;2022-09-21T08:06:59;7.22;;;4.18;;
23015;SDS011;11674;52.428;13.584;2022-09-21T08:09:31;7.93;;;4.60;;
23015;SDS011;11674;52.428;13.584;2022-09-21T08:12:03;8.60;;;4.70;;
23015;SDS011;11674;52.428;13.584;2022-09-21T08:14:29;7.03;;;4.68;;
23015;SDS011;11674;52.428;13.584;2022-09-21T08:17:00;8.70;;;4.22;;
23015;SDS011;11674;52.428;13.584;2022-09-21T08:19:32;9.82;;;4.32;;
23015;SDS011;11674;52.428;13.584;2022-09-21T08:21:58;8.82;;;3.50;;
23015;SDS011;11674;52.428;13.584;2022-09-21T08:24:29;11.10;;;3.95;;
23015;SDS011;11674;52.428;13.584;2022-09-21T08:27:01;8.55;;;3.65;;
23015;SDS011;11674;52.428;13.584;2022-09-21T08:29:27;7.93;;;3.90;;
23015;SDS011;11674;52.428;13.584;2022-09-21T08:31:58;8.00;;;3.80;;
23015;SDS011;11674;52.428;13.584;2022-09-21T08:34:30;13.68;;;3.72;;
23015;SDS011;11674;52.428;13.584;2022-09-21T08:37:02;9.13;;;4.07;;
23015;SDS011;11674;52.428;13.584;2022-09-21T08:39:34;7.80;;;4.65;;
23015;SDS011;11674;52.428;13.584;2022-09-21T08:44:48;7.22;;;3.30;;
23015;SDS011;11674;52.428;13.584;2022-09-21T08:50:03;6.30;;;2.85;;
23015;SDS011;11674;52.428;13.584;2022-09-21T08:52:43;7.00;;;2.85;;
23015;SDS011;11674;52.428;13.584;2022-09-21T08:55:13;7.63;;;2.80;;
23015;SDS011;11674;52.428;13.584;2022-09-21T08:57:48;4.28;;;2.58;;
23015;SDS011;11674;52.428;13.584;2022-09-21T09:00:15;5.25;;;2.85;;
23015;SDS011;11674;52.428;13.584;2022-09-21T09:20:17;9.40;;;3.95;;
23015;SDS011;11674;52.428;13.584;2022-09-21T09:25:34;6.68;;;2.78;;
23015;SDS011;11674;52.428;13.584;2022-09-21T09:28:07;8.35;;;3.45;;
23015;SDS011;11674;52.428;13.584;2022-09-21T09:31:34;6.95;;;2.90;;
23015;SDS011;11674;52.428;13.584;2022-09-21T09:36:40;8.05;;;3.60;;
23015;SDS011;11674;52.428;13.584;2022-09-21T09:39:17;5.40;;;2.55;;
23015;SDS011;11674;52.428;13.584;2022-09-21T09:53:10;7.93;;;2.53;;
23015;SDS011;11674;52.428;13.584;2022-09-21T09:55:36;5.57;;;2.10;;
23015;SDS011;11674;52.428;13.584;2022-09-21T09:58:18;3.47;;;2.10;;
23015;SDS011;11674;52.428;13.584;2022-09-21T10:00:54;4.32;;;2.13;;
23015;SDS011;11674;52.428;13.584;2022-09-21T10:03:20;5.38;;;1.92;;
23015;SDS011;11674;52.428;13.584;2022-09-21T10:05:56;4.63;;;1.80;;
23015;SDS011;11674;52.428;13.584;2022-09-21T10:11:10;3.10;;;1.50;;
23015;SDS011;11674;52.428;13.584;2022-09-21T10:13:38;4.55;;;1.73;;
23015;SDS011;11674;52.428;13.584;2022-09-21T10:16:19;3.53;;;1.50;;
23015;SDS011;11674;52.428;13.584;2022-09-21T10:18:54;2.78;;;1.30;;
23015;SDS011;11674;52.428;13.584;2022-09-21T10:21:38;2.15;;;1.20;;
23015;SDS011;11674;52.428;13.584;2022-09-21T10:24:14;2.58;;;1.40;;
23015;SDS011;11674;52.428;13.584;2022-09-21T10:26:52;3.15;;;1.40;;
23015;SDS011;11674;52.428;13.584;2022-09-21T10:29:30;9.07;;;1.58;;
23015;SDS011;11674;52.428;13.584;2022-09-21T10:40:01;2.83;;;1.30;;
23015;SDS011;11674;52.428;13.584;2022-09-21T10:42:35;2.90;;;1.45;;
23015;SDS011;11674;52.428;13.584;2022-09-21T10:47:47;2.38;;;1.13;;
23015;SDS011;11674;52.428;13.584;2022-09-21T10:53:20;1.10;;;0.77;;
23015;SDS011;11674;52.428;13.584;2022-09-21T10:58:39;2.00;;;0.93;;
23015;SDS011;11674;52.428;13.584;2022-09-21T11:01:31;1.23;;;0.65;;
23015;SDS011;11674;52.428;13.584;2022-09-21T11:03:58;1.35;;;0.80;;
23015;SDS011;11674;52.428;13.584;2022-09-21T11:06:36;2.30;;;0.75;;
23015;SDS011;11674;52.428;13.584;2022-09-21T11:09:19;2.22;;;1.05;;
23015;SDS011;11674;52.428;13.584;2022-09-21T11:12:20;2.30;;;1.00;;
23015;SDS011;11674;52.428;13.584;2022-09-21T11:21:54;2.75;;;1.63;;
23015;SDS011;11674;52.428;13.584;2022-09-21T11:24:33;3.03;;;1.00;;
23015;SDS011;11674;52.428;13.584;2022-09-21T11:27:28;6.55;;;2.80;;
23015;SDS011;11674;52.428;13.584;2022-09-21T11:30:11;0.80;;;0.50;;
23015;SDS011;11674;52.428;13.584;2022-09-21T11:49:35;1.98;;;0.80;;
23015;SDS011;11674;52.428;13.584;2022-09-21T11:52:37;1.10;;;0.80;;
23015;SDS011;11674;52.428;13.584;2022-09-21T11:55:35;2.10;;;0.60;;
23015;SDS011;11674;52.428;13.584;2022-09-21T12:03:57;2.85;;;0.60;;
23015;SDS011;11674;52.428;13.584;2022-09-21T12:07:02;0.35;;;0.35;;
23015;SDS011;11674;52.428;13.584;2022-09-21T12:09:54;0.30;;;0.30;;
23015;SDS011;11674;52.428;13.584;2022-09-21T12:12:43;1.38;;;0.50;;
23015;SDS011;11674;52.428;13.584;2022-09-21T12:26:22;0.63;;;0.53;;
23015;SDS011;11674;52.428;13.584;2022-09-21T12:29:01;2.13;;;1.13;;
23015;SDS011;11674;52.428;13.584;2022-09-21T12:31:38;2.63;;;0.87;;
23015;SDS011;11674;52.428;13.584;2022-09-21T12:34:38;4.80;;;2.15;;
23015;SDS011;11674;52.428;13.584;2022-09-21T12:39:58;5.68;;;3.13;;
23015;SDS011;11674;52.428;13.584;2022-09-21T12:42:39;1.20;;;0.63;;
23015;SDS011;11674;52.428;13.584;2022-09-21T12:45:28;1.92;;;0.70;;
23015;SDS011;11674;52.428;13.584;2022-09-21T12:48:07;2.25;;;1.10;;
23015;SDS011;11674;52.428;13.584;2022-09-21T12:50:45;1.25;;;0.60;;
23015;SDS011;11674;52.428;13.584;2022-09-21T12:53:34;0.82;;;0.60;;
23015;SDS011;11674;52.428;13.584;2022-09-21T13:07:56;2.13;;;0.90;;
23015;SDS011;11674;52.428;13.584;2022-09-21T13:10:39;4.03;;;1.43;;
23015;SDS011;11674;52.428;13.584;2022-09-21T13:13:22;1.10;;;0.43;;
23015;SDS011;11674;52.428;13.584;2022-09-21T13:15:59;0.73;;;0.55;;
23015;SDS011;11674;52.428;13.584;2022-09-21T13:21:00;1.80;;;0.65;;
23015;SDS011;11674;52.428;13.584;2022-09-21T13:23:58;2.38;;;0.80;;
23015;SDS011;11674;52.428;13.584;2022-09-21T13:26:36;0.85;;;0.65;;
23015;SDS011;11674;52.428;13.584;2022-09-21T13:34:37;1.52;;;0.65;;
23015;SDS011;11674;52.428;13.584;2022-09-21T13:39:41;0.93;;;0.63;;
23015;SDS011;11674;52.428;13.584;2022-09-21T13:47:42;1.00;;;0.82;;
23015;SDS011;11674;52.428;13.584;2022-09-21T13:50:23;1.30;;;0.75;;
23015;SDS011;11674;52.428;13.584;2022-09-21T13:53:02;1.90;;;0.70;;
23015;SDS011;11674;52.428;13.584;2022-09-21T13:55:40;2.47;;;0.50;;
23015;SDS011;11674;52.428;13.584;2022-09-21T13:58:25;1.08;;;0.60;;
23015;SDS011;11674;52.428;13.584;2022-09-21T14:01:04;3.40;;;1.03;;
23015;SDS011;11674;52.428;13.584;2022-09-21T14:03:46;0.40;;;0.40;;
23015;SDS011;11674;52.428;13.584;2022-09-21T14:09:06;0.65;;;0.50;;
23015;SDS011;11674;52.428;13.584;2022-09-21T14:11:53;1.08;;;0.70;;
23015;SDS011;11674;52.428;13.584;2022-09-21T14:14:36;2.58;;;0.60;;
23015;SDS011;11674;52.428;13.584;2022-09-21T14:20:23;1.63;;;0.85;;
23015;SDS011;11674;52.428;13.584;2022-09-21T14:23:42;2.70;;;0.77;;
23015;SDS011;11674;52.428;13.584;2022-09-21T14:25:55;1.60;;;0.73;;
23015;SDS011;11674;52.428;13.584;2022-09-21T14:31:15;4.53;;;0.88;;
23015;SDS011;11674;52.428;13.584;2022-09-21T14:33:53;3.08;;;0.68;;
23015;SDS011;11674;52.428;13.584;2022-09-21T14:36:23;5.25;;;1.10;;
23015;SDS011;11674;52.428;13.584;2022-09-21T14:39:03;1.02;;;0.68;;
23015;SDS011;11674;52.428;13.584;2022-09-21T14:41:31;1.17;;;0.70;;
23015;SDS011;11674;52.428;13.584;2022-09-21T14:44:17;6.30;;;2.65;;
23015;SDS011;11674;52.428;13.584;2022-09-21T14:55:47;1.73;;;0.90;;
23015;SDS011;11674;52.428;13.584;2022-09-21T15:10:10;1.52;;;0.70;;
23015;SDS011;11674;52.428;13.584;2022-09-21T15:13:00;0.77;;;0.68;;
23015;SDS011;11674;52.428;13.584;2022-09-21T15:15:40;0.80;;;0.52;;
23015;SDS011;11674;52.428;13.584;2022-09-21T15:18:21;1.95;;;0.65;;
23015;SDS011;11674;52.428;13.584;2022-09-21T15:20:59;1.10;;;0.60;;
23015;SDS011;11674;52.428;13.584;2022-09-21T15:23:39;1.05;;;0.60;;
23015;SDS011;11674;52.428;13.584;2022-09-21T15:26:14;4.13;;;0.65;;
23015;SDS011;11674;52.428;13.584;2022-09-21T15:28:51;1.48;;;0.57;;
23015;SDS011;11674;52.428;13.584;2022-09-21T15:31:27;0.82;;;0.40;;
23015;SDS011;11674;52.428;13.584;2022-09-21T15:34:03;1.40;;;0.70;;
23015;SDS011;11674;52.428;13.584;2022-09-21T15:36:38;0.60;;;0.60;;
23015;SDS011;11674;52.428;13.584;2022-09-21T15:39:25;1.67;;;0.70;;
23015;SDS011;11674;52.428;13.584;2022-09-21T15:44:38;1.10;;;0.50;;
23015;SDS011;11674;52.428;13.584;2022-09-21T15:47:10;1.15;;;0.70;;
23015;SDS011;11674;52.428;13.584;2022-09-21T15:49:43;1.42;;;0.60;;
23015;SDS011;11674;52.428;13.584;2022-09-21T15:55:10;0.85;;;0.55;;
23015;SDS011;11674;52.428;13.584;2022-09-21T15:57:53;1.17;;;0.50;;
23015;SDS011;11674;52.428;13.584;2022-09-21T16:00:30;0.77;;;0.60;;
23015;SDS011;11674;52.428;13.584;2022-09-21T16:03:15;1.38;;;0.88;;
23015;SDS011;11674;52.428;13.584;2022-09-21T16:05:50;0.65;;;0.47;;
23015;SDS011;11674;52.428;13.584;2022-09-21T16:08:33;2.05;;;0.60;;
23015;SDS011;11674;52.428;13.584;2022-09-21T16:14:01;0.98;;;0.63;;
23015;SDS011;11674;52.428;13.584;2022-09-21T16:19:43;3.22;;;0.70;;
23015;SDS011;11674;52.428;13.584;2022-09-21T16:22:49;0.70;;;0.50;;
23015;SDS011;11674;52.428;13.584;2022-09-21T16:25:34;2.50;;;0.60;;
23015;SDS011;11674;52.428;13.584;2022-09-21T16:28:05;0.88;;;0.60;;
23015;SDS011;11674;52.428;13.584;2022-09-21T16:30:56;1.02;;;0.50;;
23015;SDS011;11674;52.428;13.584;2022-09-21T16:33:38;0.90;;;0.60;;
23015;SDS011;11674;52.428;13.584;2022-09-21T16:38:41;2.60;;;0.70;;
23015;SDS011;11674;52.428;13.584;2022-09-21T16:41:13;0.60;;;0.50;;
23015;SDS011;11674;52.428;13.584;2022-09-21T16:43:45;0.43;;;0.43;;
23015;SDS011;11674;52.428;13.584;2022-09-21T16:46:17;1.13;;;0.70;;
23015;SDS011;11674;52.428;13.584;2022-09-21T16:48:42;1.38;;;0.55;;
23015;SDS011;11674;52.428;13.584;2022-09-21T16:51:15;1.95;;;0.70;;
23015;SDS011;11674;52.428;13.584;2022-09-21T16:53:47;0.60;;;0.50;;
23015;SDS011;11674;52.428;13.584;2022-09-21T16:56:12;0.82;;;0.60;;
23015;SDS011;11674;52.428;13.584;2022-09-21T16:58:45;1.08;;;0.70;;
23015;SDS011;11674;52.428;13.584;2022-09-21T17:01:17;2.10;;;0.90;;
23015;SDS011;11674;52.428;13.584;2022-09-21T17:03:43;1.60;;;0.90;;
23015;SDS011;11674;52.428;13.584;2022-09-21T17:06:16;1.90;;;0.90;;
23015;SDS011;11674;52.428;13.584;2022-09-21T17:08:49;6.40;;;2.05;;
23015;SDS011;11674;52.428;13.584;2022-09-21T17:11:21;2.28;;;1.42;;
23015;SDS011;11674;52.428;13.584;2022-09-21T17:13:53;2.95;;;0.98;;
23015;SDS011;11674;52.428;13.584;2022-09-21T17:16:25;2.15;;;1.17;;
23015;SDS011;11674;52.428;13.584;2022-09-21T17:18:57;3.30;;;1.35;;
23015;SDS011;11674;52.428;13.584;2022-09-21T17:21:29;4.28;;;2.03;;
23015;SDS011;11674;52.428;13.584;2022-09-21T17:24:01;3.50;;;1.67;;
23015;SDS011;11674;52.428;13.584;2022-09-21T17:26:33;2.53;;;1.77;;
23015;SDS011;11674;52.428;13.584;2022-09-21T17:29:13;4.40;;;1.58;;
23015;SDS011;11674;52.428;13.584;2022-09-21T17:31:56;3.47;;;1.02;;
23015;SDS011;11674;52.428;13.584;2022-09-21T17:34:29;2.50;;;1.55;;
23015;SDS011;11674;52.428;13.584;2022-09-21T17:37:01;2.30;;;1.30;;
23015;SDS011;11674;52.428;13.584;2022-09-21T17:39:33;3.20;;;1.60;;
23015;SDS011;11674;52.428;13.584;2022-09-21T17:42:11;2.65;;;1.65;;
23015;SDS011;11674;52.428;13.584;2022-09-21T17:44:57;2.78;;;1.70;;
23015;SDS011;11674;52.428;13.584;2022-09-21T17:47:40;4.03;;;1.65;;
23015;SDS011;11674;52.428;13.584;2022-09-21T17:52:44;4.53;;;2.40;;
23015;SDS011;11674;52.428;13.584;2022-09-21T17:55:16;2.58;;;1.70;;
23015;SDS011;11674;52.428;13.584;2022-09-21T18:00:49;6.40;;;2.03;;
23015;SDS011;11674;52.428;13.584;2022-09-21T18:03:40;5.05;;;2.40;;
23015;SDS011;11674;52.428;13.584;2022-09-21T18:06:06;3.70;;;2.17;;
23015;SDS011;11674;52.428;13.584;2022-09-21T18:08:40;2.53;;;1.85;;
23015;SDS011;11674;52.428;13.584;2022-09-21T18:26:00;4.97;;;1.85;;
23015;SDS011;11674;52.428;13.584;2022-09-21T18:33:53;3.30;;;2.00;;
23015;SDS011;11674;52.428;13.584;2022-09-21T18:45:04;11.68;;;2.88;;
23015;SDS011;11674;52.428;13.584;2022-09-21T18:55:55;7.95;;;3.55;;
23015;SDS011;11674;52.428;13.584;2022-09-21T18:58:21;8.30;;;3.33;;
23015;SDS011;11674;52.428;13.584;2022-09-21T19:00:53;8.40;;;3.10;;
23015;SDS011;11674;52.428;13.584;2022-09-21T19:03:25;6.20;;;3.17;;
23015;SDS011;11674;52.428;13.584;2022-09-21T19:11:33;12.77;;;7.25;;
23015;SDS011;11674;52.428;13.584;2022-09-21T19:22:42;8.07;;;5.20;;
23015;SDS011;11674;52.428;13.584;2022-09-21T19:30:47;7.15;;;5.05;;
23015;SDS011;11674;52.428;13.584;2022-09-21T19:33:26;7.70;;;4.93;;
23015;SDS011;11674;52.428;13.584;2022-09-21T19:36:01;8.17;;;4.87;;
23015;SDS011;11674;52.428;13.584;2022-09-21T19:38:33;9.13;;;5.53;;
23015;SDS011;11674;52.428;13.584;2022-09-21T19:41:03;16.38;;;5.95;;
23015;SDS011;11674;52.428;13.584;2022-09-21T19:43:49;6.28;;;3.83;;
23015;SDS011;11674;52.428;13.584;2022-09-21T19:49:32;9.77;;;5.32;;
23015;SDS011;11674;52.428;13.584;2022-09-21T19:52:14;10.00;;;4.93;;
23015;SDS011;11674;52.428;13.584;2022-09-21T19:54:41;8.40;;;5.55;;
23015;SDS011;11674;52.428;13.584;2022-09-21T19:57:15;8.75;;;4.53;;
23015;SDS011;11674;52.428;13.584;2022-09-21T19:59:49;9.98;;;5.30;;